createdAt,value
2022-07-28T00:00:03.763Z,0.30
2022-07-28T00:02:30.720Z,0.30
2022-07-28T00:04:57.641Z,0.30
2022-07-28T00:07:24.986Z,0.30
2022-07-28T00:09:55.550Z,0.60
2022-07-28T00:12:25.161Z,0.20
2022-07-28T00:14:52.056Z,0.30
2022-07-28T00:17:18.873Z,0.20
2022-07-28T00:19:45.845Z,0.43
2022-07-28T00:22:12.764Z,0.22
2022-07-28T00:24:39.674Z,0.30
2022-07-28T00:27:09.264Z,0.30
2022-07-28T00:29:49.188Z,0.47
2022-07-28T00:32:18.669Z,0.90
2022-07-28T00:34:45.709Z,0.60
2022-07-28T00:37:13.382Z,0.45
2022-07-28T00:39:42.246Z,0.20
2022-07-28T00:42:09.268Z,0.30
2022-07-28T00:44:39.149Z,0.30
2022-07-28T00:47:06.165Z,0.40
2022-07-28T00:49:33.302Z,0.50
2022-07-28T00:52:00.941Z,0.30
2022-07-28T00:54:27.811Z,0.20
2022-07-28T00:56:54.678Z,0.30
2022-07-28T00:59:21.511Z,0.20
2022-07-28T01:01:49.155Z,0.28
2022-07-28T01:04:16.887Z,0.30
2022-07-28T01:07:05.752Z,0.43
2022-07-28T01:10:06.592Z,0.57
2022-07-28T01:12:47.588Z,0.50
2022-07-28T01:15:37.607Z,0.40
2022-07-28T01:18:34.064Z,0.20
2022-07-28T01:21:16.785Z,0.20
2022-07-28T01:23:58.809Z,0.30
2022-07-28T01:27:09.751Z,0.30
2022-07-28T01:29:58.504Z,0.28
2022-07-28T01:32:31.457Z,0.20
2022-07-28T01:35:07.514Z,0.38
2022-07-28T01:37:41.408Z,0.60
2022-07-28T01:40:11.401Z,0.20
2022-07-28T01:42:43.673Z,0.38
2022-07-28T01:45:12.848Z,0.73
2022-07-28T01:47:43.157Z,0.30
2022-07-28T01:50:11.397Z,0.22
2022-07-28T01:52:40.654Z,0.30
2022-07-28T01:55:09.124Z,0.20
2022-07-28T01:57:36.975Z,0.32
2022-07-28T02:00:07.969Z,0.30
2022-07-28T02:02:35.836Z,0.28
2022-07-28T02:05:04.047Z,0.22
2022-07-28T02:07:33.032Z,0.30
2022-07-28T02:10:02.256Z,0.30
2022-07-28T02:12:30.023Z,0.43
2022-07-28T02:14:58.465Z,0.13
2022-07-28T02:17:29.448Z,0.40
2022-07-28T02:19:57.978Z,0.20
2022-07-28T02:22:26.934Z,0.30
2022-07-28T02:24:55.288Z,0.77
2022-07-28T02:27:40.945Z,0.28
2022-07-28T02:30:34.691Z,0.30
2022-07-28T02:33:12.502Z,0.98
2022-07-28T02:35:56.713Z,0.30
2022-07-28T02:38:32.867Z,0.20
2022-07-28T02:41:08.150Z,0.70
2022-07-28T02:43:49.524Z,0.30
2022-07-28T02:46:38.321Z,0.40
2022-07-28T02:49:13.465Z,0.40
2022-07-28T02:51:43.227Z,0.60
2022-07-28T02:54:12.469Z,0.30
2022-07-28T02:56:41.716Z,0.57
2022-07-28T02:59:21.932Z,0.35
2022-07-28T03:01:49.793Z,0.30
2022-07-28T03:04:37.582Z,0.22
2022-07-28T03:07:05.763Z,0.60
2022-07-28T03:09:41.790Z,0.20
2022-07-28T03:12:09.801Z,0.30
2022-07-28T03:14:36.945Z,1.27
2022-07-28T03:17:04.448Z,0.20
2022-07-28T03:19:32.031Z,0.30
2022-07-28T03:21:59.134Z,0.30
2022-07-28T03:24:29.886Z,0.38
2022-07-28T03:27:03.735Z,0.30
2022-07-28T03:29:32.799Z,0.30
2022-07-28T03:32:00.949Z,0.38
2022-07-28T03:34:28.518Z,0.25
2022-07-28T03:37:08.875Z,0.30
2022-07-28T03:39:44.008Z,0.30
2022-07-28T03:42:12.134Z,0.20
2022-07-28T03:44:39.760Z,0.45
2022-07-28T03:47:07.303Z,0.40
2022-07-28T03:49:34.215Z,0.50
2022-07-28T03:52:01.060Z,0.38
2022-07-28T03:54:28.061Z,0.30
2022-07-28T03:56:55.004Z,0.30
2022-07-28T03:59:22.004Z,0.20
2022-07-28T04:01:49.371Z,0.43
2022-07-28T04:04:16.795Z,0.30
2022-07-28T04:06:43.993Z,0.30
2022-07-28T04:09:10.967Z,0.45
2022-07-28T04:11:37.744Z,0.20
2022-07-28T04:14:04.561Z,0.30
2022-07-28T04:16:31.540Z,0.28
2022-07-28T04:18:58.504Z,0.30
2022-07-28T04:21:25.941Z,0.30
2022-07-28T04:23:52.734Z,0.30
2022-07-28T04:26:20.162Z,0.22
2022-07-28T04:28:47.197Z,0.57
2022-07-28T04:31:14.104Z,0.30
2022-07-28T04:33:41.224Z,0.30
2022-07-28T04:36:08.228Z,0.65
2022-07-28T04:38:36.288Z,0.30
2022-07-28T04:41:03.500Z,0.30
2022-07-28T04:43:30.525Z,0.20
2022-07-28T04:45:57.470Z,0.20
2022-07-28T04:48:24.796Z,0.30
2022-07-28T04:50:53.213Z,0.30
2022-07-28T04:53:21.491Z,0.20
2022-07-28T04:55:49.595Z,0.50
2022-07-28T04:58:18.433Z,0.20
2022-07-28T05:00:49.908Z,0.28
2022-07-28T05:03:17.414Z,0.20
2022-07-28T05:05:44.326Z,0.20
2022-07-28T05:08:15.976Z,0.25
2022-07-28T05:10:42.752Z,0.30
2022-07-28T05:13:10.530Z,0.20
2022-07-28T05:15:37.345Z,0.20
2022-07-28T05:18:05.201Z,0.20
2022-07-28T05:20:33.425Z,0.30
2022-07-28T05:23:00.358Z,0.25
2022-07-28T05:25:27.300Z,0.32
2022-07-28T05:27:54.738Z,0.32
2022-07-28T05:30:22.186Z,0.20
2022-07-28T05:32:49.595Z,0.30
2022-07-28T05:35:16.724Z,0.22
2022-07-28T05:37:44.036Z,0.55
2022-07-28T05:40:14.608Z,0.20
2022-07-28T05:42:43.338Z,0.22
2022-07-28T05:45:15.039Z,0.30
2022-07-28T05:47:49.873Z,0.20
2022-07-28T05:50:18.059Z,0.10
2022-07-28T05:52:45.747Z,0.30
2022-07-28T05:55:19.697Z,0.20
2022-07-28T05:57:47.211Z,0.20
2022-07-28T06:00:16.516Z,0.30
2022-07-28T06:02:45.923Z,0.20
2022-07-28T06:05:13.531Z,0.20
2022-07-28T06:07:46.790Z,0.30
2022-07-28T06:10:16.209Z,0.30
2022-07-28T06:12:48.081Z,0.20
2022-07-28T06:15:27.094Z,0.30
2022-07-28T06:17:55.793Z,0.20
2022-07-28T06:20:23.924Z,0.20
2022-07-28T06:22:53.133Z,0.30
2022-07-28T06:25:28.821Z,0.20
2022-07-28T06:27:58.383Z,0.30
2022-07-28T06:30:26.385Z,0.28
2022-07-28T06:32:54.075Z,0.40
2022-07-28T06:35:27.774Z,0.85
2022-07-28T06:37:55.051Z,0.82
2022-07-28T06:40:28.910Z,0.45
2022-07-28T06:42:55.779Z,0.70
2022-07-28T06:45:28.772Z,0.40
2022-07-28T06:47:55.663Z,0.30
2022-07-28T06:50:28.773Z,0.52
2022-07-28T06:52:57.098Z,0.95
2022-07-28T06:55:26.456Z,0.63
2022-07-28T06:58:01.853Z,0.50
2022-07-28T07:00:28.859Z,0.40
2022-07-28T07:02:55.757Z,0.55
2022-07-28T07:05:23.070Z,1.00
2022-07-28T07:07:49.910Z,0.50
2022-07-28T07:10:16.803Z,0.60
2022-07-28T07:12:43.579Z,2.80
2022-07-28T07:15:11.150Z,1.98
2022-07-28T07:17:38.236Z,0.52
2022-07-28T07:20:06.770Z,0.50
2022-07-28T07:22:33.863Z,0.40
2022-07-28T07:25:14.068Z,0.57
2022-07-28T07:27:41.036Z,0.90
2022-07-28T07:30:09.411Z,1.25
2022-07-28T07:32:37.693Z,0.50
2022-07-28T07:35:05.468Z,0.50
2022-07-28T07:37:35.084Z,2.13
2022-07-28T07:40:04.607Z,1.05
2022-07-28T07:42:32.848Z,0.40
2022-07-28T07:44:59.847Z,0.70
2022-07-28T07:47:26.636Z,0.43
2022-07-28T07:49:53.426Z,0.93
2022-07-28T07:52:20.354Z,2.42
2022-07-28T07:54:47.308Z,1.95
2022-07-28T07:57:14.255Z,0.65
2022-07-28T07:59:42.573Z,0.80
2022-07-28T08:02:09.679Z,1.25
2022-07-28T08:04:37.231Z,0.40
2022-07-28T08:07:05.476Z,0.73
2022-07-28T08:09:33.109Z,1.15
2022-07-28T08:11:59.975Z,0.50
2022-07-28T08:14:27.008Z,0.63
2022-07-28T08:16:56.485Z,0.68
2022-07-28T08:19:23.358Z,0.63
2022-07-28T08:21:50.690Z,1.38
2022-07-28T08:24:27.763Z,1.00
2022-07-28T08:27:05.002Z,1.02
2022-07-28T08:29:32.095Z,0.73
2022-07-28T08:31:59.181Z,0.95
2022-07-28T08:34:32.786Z,0.90
2022-07-28T08:37:02.509Z,2.05
2022-07-28T08:39:30.370Z,2.00
2022-07-28T08:42:00.496Z,1.55
2022-07-28T08:45:01.404Z,0.85
2022-07-28T08:47:40.561Z,0.75
2022-07-28T08:50:16.761Z,0.90
2022-07-28T08:52:49.549Z,1.05
2022-07-28T08:55:23.008Z,1.40
2022-07-28T08:57:50.308Z,0.75
2022-07-28T09:00:17.923Z,1.17
2022-07-28T09:02:47.861Z,1.05
2022-07-28T09:05:23.861Z,1.52
2022-07-28T09:07:54.667Z,1.15
2022-07-28T09:10:22.125Z,3.13
2022-07-28T09:12:49.105Z,0.90
2022-07-28T09:15:16.011Z,1.75
2022-07-28T09:17:43.108Z,1.98
2022-07-28T09:20:11.745Z,2.45
2022-07-28T09:23:02.044Z,1.80
2022-07-28T09:25:29.871Z,1.45
2022-07-28T09:28:05.654Z,1.42
2022-07-28T09:30:34.648Z,1.23
2022-07-28T09:33:42.605Z,4.10
2022-07-28T09:36:14.854Z,1.25
2022-07-28T09:38:41.870Z,1.88
2022-07-28T09:41:08.713Z,1.60
2022-07-28T09:43:42.391Z,0.57
2022-07-28T09:46:14.802Z,1.58
2022-07-28T09:48:51.010Z,0.88
2022-07-28T09:51:20.939Z,1.08
2022-07-28T09:53:48.256Z,0.70
2022-07-28T09:56:15.184Z,1.50
2022-07-28T09:58:52.465Z,1.13
2022-07-28T10:01:21.172Z,1.58
2022-07-28T10:03:52.936Z,0.80
2022-07-28T10:06:30.130Z,0.60
2022-07-28T10:09:02.269Z,1.17
2022-07-28T10:11:30.444Z,0.95
2022-07-28T10:14:05.833Z,0.80
2022-07-28T10:16:53.496Z,1.48
2022-07-28T10:19:20.547Z,0.77
2022-07-28T10:21:49.413Z,1.10
2022-07-28T10:24:24.320Z,1.02
2022-07-28T10:26:53.123Z,1.60
2022-07-28T10:29:22.120Z,1.88
2022-07-28T10:31:55.844Z,1.02
2022-07-28T10:34:31.875Z,0.75
2022-07-28T10:37:03.495Z,1.67
2022-07-28T10:39:39.774Z,1.00
2022-07-28T10:42:11.631Z,1.02
2022-07-28T10:44:39.859Z,1.35
2022-07-28T10:47:10.176Z,0.70
2022-07-28T10:49:50.010Z,0.90
2022-07-28T10:52:46.343Z,0.88
2022-07-28T10:55:31.885Z,2.83
2022-07-28T10:58:24.981Z,1.10
2022-07-28T11:01:02.042Z,3.42
2022-07-28T11:03:40.651Z,0.82
2022-07-28T11:06:26.697Z,1.30
2022-07-28T11:09:22.736Z,2.00
2022-07-28T11:12:00.579Z,3.00
2022-07-28T11:14:37.735Z,2.17
2022-07-28T11:17:10.350Z,1.80
2022-07-28T11:20:06.971Z,2.00
2022-07-28T11:22:35.046Z,2.40
2022-07-28T11:25:18.954Z,2.38
2022-07-28T11:27:52.707Z,1.10
2022-07-28T11:30:21.301Z,1.10
2022-07-28T11:32:51.066Z,1.27
2022-07-28T11:35:19.958Z,0.70
2022-07-28T11:38:02.388Z,4.47
2022-07-28T11:40:41.377Z,2.40
2022-07-28T11:43:35.442Z,1.05
2022-07-28T11:46:07.822Z,1.20
2022-07-28T11:48:44.913Z,1.45
2022-07-28T11:51:13.654Z,2.63
2022-07-28T11:53:52.872Z,2.50
2022-07-28T11:56:37.821Z,1.63
2022-07-28T11:59:06.701Z,1.85
2022-07-28T12:01:36.949Z,2.08
2022-07-28T12:04:16.182Z,1.17
2022-07-28T12:06:49.542Z,1.52
2022-07-28T12:09:23.247Z,1.35
2022-07-28T12:11:54.265Z,3.03
2022-07-28T12:14:22.741Z,1.30
2022-07-28T12:16:53.367Z,2.15
2022-07-28T12:19:21.685Z,1.80
2022-07-28T12:21:51.090Z,3.28
2022-07-28T12:24:27.881Z,1.95
2022-07-28T12:26:55.518Z,1.45
2022-07-28T12:29:24.410Z,1.15
2022-07-28T12:32:06.718Z,1.88
2022-07-28T12:34:35.402Z,2.78
2022-07-28T12:37:05.467Z,1.35
2022-07-28T12:39:39.896Z,2.13
2022-07-28T12:42:10.239Z,1.58
2022-07-28T12:44:46.745Z,1.65
2022-07-28T12:47:16.184Z,1.20
2022-07-28T12:49:44.579Z,1.17
2022-07-28T12:52:22.870Z,2.63
2022-07-28T12:54:54.602Z,2.63
2022-07-28T12:57:50.743Z,1.40
2022-07-28T13:00:22.893Z,1.98
2022-07-28T13:02:52.346Z,1.73
2022-07-28T13:05:58.334Z,1.63
2022-07-28T13:08:27.708Z,2.00
2022-07-28T13:10:58.853Z,1.50
2022-07-28T13:13:26.856Z,0.95
2022-07-28T13:16:13.861Z,1.20
2022-07-28T13:18:46.410Z,1.35
2022-07-28T13:21:13.895Z,1.10
2022-07-28T13:23:40.879Z,0.98
2022-07-28T13:26:08.510Z,0.85
2022-07-28T13:28:35.497Z,0.90
2022-07-28T13:31:03.241Z,1.70
2022-07-28T13:33:31.324Z,1.10
2022-07-28T13:35:58.909Z,1.05
2022-07-28T13:38:26.107Z,2.75
2022-07-28T13:40:52.903Z,1.17
2022-07-28T13:43:20.629Z,0.93
2022-07-28T13:45:47.759Z,2.47
2022-07-28T13:48:14.764Z,1.17
2022-07-28T13:50:42.016Z,0.75
2022-07-28T13:53:09.130Z,0.75
2022-07-28T13:55:37.778Z,1.20
2022-07-28T13:58:08.893Z,3.08
2022-07-28T14:00:36.602Z,2.38
2022-07-28T14:03:03.811Z,2.05
2022-07-28T14:05:35.589Z,1.27
2022-07-28T14:08:02.916Z,2.42
2022-07-28T14:10:29.856Z,1.10
2022-07-28T14:12:56.938Z,1.10
2022-07-28T14:15:24.646Z,1.60
2022-07-28T14:17:51.683Z,2.08
2022-07-28T14:20:18.537Z,1.20
2022-07-28T14:22:46.316Z,1.27
2022-07-28T14:25:20.654Z,0.98
2022-07-28T14:27:49.383Z,1.85
2022-07-28T14:30:17.346Z,0.80
2022-07-28T14:32:44.376Z,1.45
2022-07-28T14:35:11.330Z,0.98
2022-07-28T14:38:04.857Z,0.70
2022-07-28T14:40:25.491Z,2.63
2022-07-28T14:42:52.314Z,2.78
2022-07-28T14:45:19.458Z,1.65
2022-07-28T14:47:46.607Z,2.53
2022-07-28T14:50:13.866Z,1.80
2022-07-28T14:52:40.874Z,1.45
2022-07-28T14:55:12.501Z,1.30
2022-07-28T14:57:49.995Z,1.38
2022-07-28T15:00:23.682Z,2.38
2022-07-28T15:02:54.018Z,1.10
2022-07-28T15:05:21.908Z,0.98
2022-07-28T15:07:51.821Z,1.70
2022-07-28T15:10:19.308Z,1.55
2022-07-28T15:12:46.402Z,2.38
2022-07-28T15:15:13.489Z,1.00
2022-07-28T15:17:40.402Z,2.28
2022-07-28T15:20:08.995Z,0.95
2022-07-28T15:22:35.931Z,1.60
2022-07-28T15:25:04.169Z,1.60
2022-07-28T15:27:33.669Z,2.67
2022-07-28T15:30:02.478Z,2.22
2022-07-28T15:32:31.336Z,2.90
2022-07-28T15:34:59.146Z,1.15
2022-07-28T15:37:27.270Z,1.55
2022-07-28T15:39:54.152Z,2.33
2022-07-28T15:42:21.219Z,1.88
2022-07-28T15:44:49.295Z,1.30
2022-07-28T15:47:16.664Z,1.75
2022-07-28T15:49:43.578Z,1.33
2022-07-28T15:52:10.401Z,1.60
2022-07-28T15:54:37.281Z,2.08
2022-07-28T15:57:04.274Z,3.42
2022-07-28T15:59:49.062Z,3.03
2022-07-28T16:02:18.119Z,1.58
2022-07-28T16:04:52.265Z,2.20
2022-07-28T16:07:25.691Z,1.52
2022-07-28T16:09:55.576Z,1.30
2022-07-28T16:12:25.733Z,1.00
2022-07-28T16:14:54.065Z,1.38
2022-07-28T16:17:24.636Z,2.30
2022-07-28T16:19:52.423Z,1.10
2022-07-28T16:22:20.700Z,1.65
2022-07-28T16:24:48.018Z,1.30
2022-07-28T16:27:15.123Z,1.73
2022-07-28T16:29:42.576Z,1.20
2022-07-28T16:32:09.649Z,1.95
2022-07-28T16:34:36.594Z,1.15
2022-07-28T16:37:05.711Z,1.20
2022-07-28T16:39:33.706Z,1.15
2022-07-28T16:42:00.536Z,2.03
2022-07-28T16:44:28.904Z,1.73
2022-07-28T16:46:56.311Z,1.27
2022-07-28T16:49:24.221Z,1.25
2022-07-28T16:51:51.440Z,1.23
2022-07-28T16:54:19.384Z,1.08
2022-07-28T16:56:46.611Z,1.63
2022-07-28T16:59:13.954Z,1.25
2022-07-28T17:01:45.519Z,1.85
2022-07-28T17:04:13.792Z,1.35
2022-07-28T17:06:41.458Z,1.23
2022-07-28T17:09:08.278Z,1.23
2022-07-28T17:11:35.801Z,1.67
2022-07-28T17:14:03.416Z,2.22
2022-07-28T17:16:30.884Z,1.42
2022-07-28T17:18:57.850Z,2.33
2022-07-28T17:21:25.718Z,1.13
2022-07-28T17:23:53.643Z,1.13
2022-07-28T17:29:09.030Z,0.90
2022-07-28T17:31:37.074Z,0.85
2022-07-28T17:34:04.378Z,0.73
2022-07-28T17:36:35.480Z,1.92
2022-07-28T17:39:03.421Z,1.00
2022-07-28T17:41:30.516Z,1.02
2022-07-28T17:43:57.647Z,0.90
2022-07-28T17:46:26.723Z,2.05
2022-07-28T17:48:54.377Z,1.00
2022-07-28T17:51:21.646Z,0.90
2022-07-28T17:53:50.238Z,1.77
2022-07-28T17:56:17.957Z,1.60
2022-07-28T17:58:45.748Z,1.58
2022-07-28T18:01:15.153Z,2.05
2022-07-28T18:03:59.562Z,1.17
2022-07-28T18:06:34.458Z,1.23
2022-07-28T18:09:08.200Z,1.75
2022-07-28T18:11:58.331Z,0.98
2022-07-28T18:14:27.711Z,1.15
2022-07-28T18:16:55.100Z,2.13
2022-07-28T18:19:22.529Z,1.88
2022-07-28T18:21:49.375Z,2.40
2022-07-28T18:24:16.964Z,3.60
2022-07-28T18:26:44.508Z,3.83
2022-07-28T18:29:11.635Z,1.70
2022-07-28T18:31:45.861Z,0.85
2022-07-28T18:34:14.416Z,2.38
2022-07-28T18:36:41.489Z,2.80
2022-07-28T18:39:08.757Z,1.90
2022-07-28T18:41:46.630Z,1.52
2022-07-28T18:44:19.217Z,1.17
2022-07-28T18:46:47.185Z,1.10
2022-07-28T18:49:14.713Z,1.50
2022-07-28T18:51:45.269Z,1.20
2022-07-28T18:54:21.628Z,1.30
2022-07-28T18:56:53.923Z,1.30
2022-07-28T18:59:20.738Z,1.00
2022-07-28T19:01:47.804Z,1.50
2022-07-28T19:04:15.192Z,0.90
2022-07-28T19:06:42.479Z,0.63
2022-07-28T19:09:09.619Z,0.65
2022-07-28T19:11:36.853Z,0.50
2022-07-28T19:14:03.805Z,0.50
2022-07-28T19:16:30.848Z,0.50
2022-07-28T19:18:58.283Z,0.57
2022-07-28T19:21:25.186Z,0.82
2022-07-28T19:23:53.171Z,0.30
2022-07-28T19:26:21.983Z,0.63
2022-07-28T19:28:49.129Z,0.60
2022-07-28T19:31:16.358Z,0.50
2022-07-28T19:33:43.777Z,0.60
2022-07-28T19:36:14.521Z,0.50
2022-07-28T19:38:41.953Z,0.65
2022-07-28T19:41:10.550Z,0.50
2022-07-28T19:43:37.772Z,0.38
2022-07-28T19:46:05.174Z,0.35
2022-07-28T19:48:32.223Z,0.50
2022-07-28T19:51:00.421Z,0.60
2022-07-28T19:53:32.350Z,0.40
2022-07-28T19:56:01.880Z,0.55
2022-07-28T19:58:28.953Z,0.28
2022-07-28T20:00:56.522Z,0.50
2022-07-28T20:04:01.186Z,0.30
2022-07-28T20:06:10.946Z,0.30
2022-07-28T20:08:39.162Z,0.40
2022-07-28T20:11:06.647Z,0.40
2022-07-28T20:13:33.561Z,0.60
2022-07-28T20:16:00.905Z,0.40
2022-07-28T20:18:27.781Z,0.40
2022-07-28T20:20:54.645Z,0.57
2022-07-28T20:23:21.713Z,0.50
2022-07-28T20:25:48.858Z,0.40
2022-07-28T20:28:15.939Z,0.55
2022-07-28T20:30:43.022Z,0.43
2022-07-28T20:33:09.867Z,0.50
2022-07-28T20:35:36.850Z,0.40
2022-07-28T20:38:05.411Z,0.60
2022-07-28T20:40:32.429Z,0.50
2022-07-28T20:42:59.279Z,0.50
2022-07-28T20:45:26.224Z,0.63
2022-07-28T20:47:53.200Z,0.70
2022-07-28T20:50:21.242Z,0.47
2022-07-28T20:52:48.950Z,0.60
2022-07-28T20:55:16.239Z,0.47
2022-07-28T20:57:53.118Z,0.60
2022-07-28T21:00:20.504Z,0.60
2022-07-28T21:02:47.474Z,1.02
2022-07-28T21:05:22.095Z,1.10
2022-07-28T21:08:05.342Z,1.15
2022-07-28T21:10:33.561Z,0.80
2022-07-28T21:13:00.629Z,0.65
2022-07-28T21:15:27.627Z,0.88
2022-07-28T21:17:57.033Z,0.40
2022-07-28T21:20:24.685Z,0.50
2022-07-28T21:22:52.185Z,0.52
2022-07-28T21:25:19.530Z,0.55
2022-07-28T21:28:05.016Z,0.40
2022-07-28T21:30:32.146Z,0.47
2022-07-28T21:32:59.328Z,0.40
2022-07-28T21:35:26.556Z,0.75
2022-07-28T21:37:53.608Z,0.75
2022-07-28T21:40:20.563Z,0.50
2022-07-28T21:42:47.752Z,0.57
2022-07-28T21:45:14.651Z,0.63
2022-07-28T21:47:41.890Z,0.60
2022-07-28T21:50:09.951Z,0.77
2022-07-28T21:52:37.273Z,0.50
2022-07-28T21:55:05.894Z,0.88
2022-07-28T21:57:33.063Z,0.50
2022-07-28T22:00:00.009Z,0.65
2022-07-28T22:02:27.076Z,0.70
2022-07-28T22:04:53.988Z,0.43
2022-07-28T22:07:20.991Z,0.47
2022-07-28T22:09:47.808Z,0.40
2022-07-28T22:12:21.635Z,0.40
2022-07-28T22:14:54.491Z,0.50
2022-07-28T22:17:21.287Z,0.40
2022-07-28T22:19:53.525Z,0.50
2022-07-28T22:22:24.238Z,0.63
2022-07-28T22:24:51.052Z,0.30
2022-07-28T22:27:24.505Z,0.40
2022-07-28T22:29:52.373Z,0.38
2022-07-28T22:32:28.705Z,0.40
2022-07-28T22:34:56.979Z,0.40
2022-07-28T22:37:30.510Z,0.40
2022-07-28T22:39:57.334Z,0.40
2022-07-28T22:42:24.173Z,0.25
2022-07-28T22:44:51.095Z,0.30
2022-07-28T22:47:24.506Z,0.40
2022-07-28T22:49:53.875Z,0.30
2022-07-28T22:52:25.118Z,0.45
2022-07-28T22:54:53.479Z,0.43
2022-07-28T22:57:28.514Z,0.70
2022-07-28T22:59:55.983Z,1.52
2022-07-28T23:02:25.959Z,2.28
2022-07-28T23:04:53.180Z,3.25
2022-07-28T23:07:20.322Z,2.55
2022-07-28T23:10:15.605Z,1.77
2022-07-28T23:12:42.518Z,1.23
2022-07-28T23:15:16.527Z,3.65
2022-07-28T23:17:43.362Z,2.70
2022-07-28T23:20:10.926Z,2.05
2022-07-28T23:22:38.111Z,1.70
2022-07-28T23:25:12.569Z,1.38
2022-07-28T23:27:39.534Z,1.73
2022-07-28T23:30:20.563Z,2.22
2022-07-28T23:32:52.472Z,2.55
2022-07-28T23:35:19.523Z,2.90
2022-07-28T23:37:46.467Z,1.23
2022-07-28T23:40:14.386Z,1.67
2022-07-28T23:42:41.514Z,0.75
2022-07-28T23:45:09.075Z,0.63
2022-07-28T23:47:36.024Z,1.02
2022-07-28T23:50:11.643Z,0.70
2022-07-28T23:52:38.510Z,0.55
2022-07-28T23:55:12.585Z,0.45
2022-07-28T23:57:39.482Z,0.73
